sensor_id;sensor_type;location;lat;lon;timestamp;P1;durP1;ratioP1;P2;durP2;ratioP2
75941;SDS011;64622;46.220;19.878;2023-02-26T00:01:11;12.10;;;4.60;;
75941;SDS011;64622;46.220;19.878;2023-02-26T00:03:39;12.13;;;4.18;;
75941;SDS011;64622;46.220;19.878;2023-02-26T00:06:06;11.60;;;4.70;;
75941;SDS011;64622;46.220;19.878;2023-02-26T00:08:33;10.23;;;3.92;;
75941;SDS011;64622;46.220;19.878;2023-02-26T00:11:00;8.23;;;3.17;;
75941;SDS011;64622;46.220;19.878;2023-02-26T00:13:27;13.15;;;4.68;;
75941;SDS011;64622;46.220;19.878;2023-02-26T00:15:55;12.60;;;4.30;;
75941;SDS011;64622;46.220;19.878;2023-02-26T00:18:25;11.77;;;3.75;;
75941;SDS011;64622;46.220;19.878;2023-02-26T00:20:53;10.98;;;4.18;;
75941;SDS011;64622;46.220;19.878;2023-02-26T00:23:20;10.60;;;4.23;;
75941;SDS011;64622;46.220;19.878;2023-02-26T00:25:49;10.95;;;3.70;;
75941;SDS011;64622;46.220;19.878;2023-02-26T00:28:16;12.10;;;4.37;;
75941;SDS011;64622;46.220;19.878;2023-02-26T00:30:43;11.50;;;4.20;;
75941;SDS011;64622;46.220;19.878;2023-02-26T00:33:10;11.05;;;4.20;;
75941;SDS011;64622;46.220;19.878;2023-02-26T00:35:37;11.20;;;4.10;;
75941;SDS011;64622;46.220;19.878;2023-02-26T00:38:12;11.15;;;4.35;;
75941;SDS011;64622;46.220;19.878;2023-02-26T00:40:46;10.05;;;3.83;;
75941;SDS011;64622;46.220;19.878;2023-02-26T00:43:17;11.23;;;4.12;;
75941;SDS011;64622;46.220;19.878;2023-02-26T00:46:11;11.02;;;4.28;;
75941;SDS011;64622;46.220;19.878;2023-02-26T00:52:01;10.30;;;3.30;;
75941;SDS011;64622;46.220;19.878;2023-02-26T00:54:30;13.43;;;3.95;;
75941;SDS011;64622;46.220;19.878;2023-02-26T00:56:58;8.30;;;2.78;;
75941;SDS011;64622;46.220;19.878;2023-02-26T00:59:25;6.97;;;2.30;;
75941;SDS011;64622;46.220;19.878;2023-02-26T01:01:51;9.77;;;2.80;;
75941;SDS011;64622;46.220;19.878;2023-02-26T01:04:19;5.80;;;1.73;;
75941;SDS011;64622;46.220;19.878;2023-02-26T01:06:52;10.60;;;2.55;;
75941;SDS011;64622;46.220;19.878;2023-02-26T01:11:57;7.57;;;1.87;;
75941;SDS011;64622;46.220;19.878;2023-02-26T01:14:27;7.53;;;2.58;;
75941;SDS011;64622;46.220;19.878;2023-02-26T01:23:02;8.82;;;3.17;;
75941;SDS011;64622;46.220;19.878;2023-02-26T01:25:38;11.57;;;2.85;;
75941;SDS011;64622;46.220;19.878;2023-02-26T01:28:15;9.60;;;2.83;;
75941;SDS011;64622;46.220;19.878;2023-02-26T01:30:42;7.55;;;2.50;;
75941;SDS011;64622;46.220;19.878;2023-02-26T01:33:12;9.90;;;2.80;;
75941;SDS011;64622;46.220;19.878;2023-02-26T01:35:45;8.32;;;2.22;;
75941;SDS011;64622;46.220;19.878;2023-02-26T01:38:21;7.95;;;2.40;;
75941;SDS011;64622;46.220;19.878;2023-02-26T01:43:37;6.68;;;2.25;;
75941;SDS011;64622;46.220;19.878;2023-02-26T01:46:25;7.85;;;2.30;;
75941;SDS011;64622;46.220;19.878;2023-02-26T01:48:54;7.85;;;2.22;;
75941;SDS011;64622;46.220;19.878;2023-02-26T01:54:34;8.27;;;2.43;;
75941;SDS011;64622;46.220;19.878;2023-02-26T01:57:12;7.07;;;1.87;;
75941;SDS011;64622;46.220;19.878;2023-02-26T01:59:44;7.55;;;2.47;;
75941;SDS011;64622;46.220;19.878;2023-02-26T02:02:15;6.22;;;1.65;;
75941;SDS011;64622;46.220;19.878;2023-02-26T02:04:44;6.55;;;1.67;;
75941;SDS011;64622;46.220;19.878;2023-02-26T02:07:13;7.10;;;1.90;;
75941;SDS011;64622;46.220;19.878;2023-02-26T02:09:40;6.05;;;1.85;;
75941;SDS011;64622;46.220;19.878;2023-02-26T02:23:21;7.18;;;2.10;;
75941;SDS011;64622;46.220;19.878;2023-02-26T02:37:28;6.12;;;1.55;;
75941;SDS011;64622;46.220;19.878;2023-02-26T02:40:04;7.78;;;2.03;;
75941;SDS011;64622;46.220;19.878;2023-02-26T02:42:51;8.57;;;2.30;;
75941;SDS011;64622;46.220;19.878;2023-02-26T02:45:31;9.90;;;2.58;;
75941;SDS011;64622;46.220;19.878;2023-02-26T02:48:05;11.47;;;3.10;;
75941;SDS011;64622;46.220;19.878;2023-02-26T02:50:38;11.70;;;3.58;;
75941;SDS011;64622;46.220;19.878;2023-02-26T02:53:13;14.30;;;4.07;;
75941;SDS011;64622;46.220;19.878;2023-02-26T02:55:53;15.70;;;4.32;;
75941;SDS011;64622;46.220;19.878;2023-02-26T02:58:27;16.20;;;4.57;;
75941;SDS011;64622;46.220;19.878;2023-02-26T03:00:58;19.52;;;4.60;;
75941;SDS011;64622;46.220;19.878;2023-02-26T03:06:06;14.00;;;4.43;;
75941;SDS011;64622;46.220;19.878;2023-02-26T03:08:35;13.00;;;4.00;;
75941;SDS011;64622;46.220;19.878;2023-02-26T03:11:06;15.73;;;5.15;;
75941;SDS011;64622;46.220;19.878;2023-02-26T03:13:35;15.95;;;4.57;;
75941;SDS011;64622;46.220;19.878;2023-02-26T03:16:08;15.95;;;4.45;;
75941;SDS011;64622;46.220;19.878;2023-02-26T03:21:52;15.65;;;4.30;;
75941;SDS011;64622;46.220;19.878;2023-02-26T03:27:12;13.00;;;4.23;;
75941;SDS011;64622;46.220;19.878;2023-02-26T03:29:50;13.32;;;4.07;;
75941;SDS011;64622;46.220;19.878;2023-02-26T03:34:52;10.95;;;3.00;;
75941;SDS011;64622;46.220;19.878;2023-02-26T03:37:41;10.50;;;2.92;;
75941;SDS011;64622;46.220;19.878;2023-02-26T03:40:15;9.13;;;2.63;;
75941;SDS011;64622;46.220;19.878;2023-02-26T03:45:42;8.07;;;2.97;;
75941;SDS011;64622;46.220;19.878;2023-02-26T03:48:12;11.02;;;2.60;;
75941;SDS011;64622;46.220;19.878;2023-02-26T03:50:45;6.72;;;2.47;;
75941;SDS011;64622;46.220;19.878;2023-02-26T03:53:20;7.87;;;3.08;;
75941;SDS011;64622;46.220;19.878;2023-02-26T03:58:30;7.97;;;2.87;;
75941;SDS011;64622;46.220;19.878;2023-02-26T04:01:03;11.05;;;3.45;;
75941;SDS011;64622;46.220;19.878;2023-02-26T04:03:49;11.25;;;3.85;;
75941;SDS011;64622;46.220;19.878;2023-02-26T04:06:22;10.68;;;3.28;;
75941;SDS011;64622;46.220;19.878;2023-02-26T04:08:50;9.05;;;3.40;;
75941;SDS011;64622;46.220;19.878;2023-02-26T04:11:20;10.70;;;4.37;;
75941;SDS011;64622;46.220;19.878;2023-02-26T04:13:51;10.68;;;4.18;;
75941;SDS011;64622;46.220;19.878;2023-02-26T04:16:18;11.70;;;4.45;;
75941;SDS011;64622;46.220;19.878;2023-02-26T04:18:45;11.32;;;4.22;;
75941;SDS011;64622;46.220;19.878;2023-02-26T04:21:12;11.35;;;5.18;;
75941;SDS011;64622;46.220;19.878;2023-02-26T04:23:40;11.80;;;5.35;;
75941;SDS011;64622;46.220;19.878;2023-02-26T04:26:07;13.25;;;5.43;;
75941;SDS011;64622;46.220;19.878;2023-02-26T04:28:35;10.77;;;4.90;;
75941;SDS011;64622;46.220;19.878;2023-02-26T04:31:03;10.70;;;4.72;;
75941;SDS011;64622;46.220;19.878;2023-02-26T04:33:31;11.40;;;4.40;;
75941;SDS011;64622;46.220;19.878;2023-02-26T04:35:59;14.23;;;6.30;;
75941;SDS011;64622;46.220;19.878;2023-02-26T04:38:26;13.77;;;5.62;;
75941;SDS011;64622;46.220;19.878;2023-02-26T04:40:54;14.38;;;6.32;;
75941;SDS011;64622;46.220;19.878;2023-02-26T04:43:21;13.18;;;5.28;;
75941;SDS011;64622;46.220;19.878;2023-02-26T04:45:49;13.70;;;6.20;;
75941;SDS011;64622;46.220;19.878;2023-02-26T04:48:15;16.65;;;7.47;;
75941;SDS011;64622;46.220;19.878;2023-02-26T04:50:43;19.23;;;7.20;;
75941;SDS011;64622;46.220;19.878;2023-02-26T04:53:11;12.52;;;6.37;;
75941;SDS011;64622;46.220;19.878;2023-02-26T04:55:37;13.27;;;6.45;;
75941;SDS011;64622;46.220;19.878;2023-02-26T04:58:06;13.30;;;5.80;;
75941;SDS011;64622;46.220;19.878;2023-02-26T05:00:33;12.85;;;5.35;;
75941;SDS011;64622;46.220;19.878;2023-02-26T05:03:00;13.13;;;5.35;;
75941;SDS011;64622;46.220;19.878;2023-02-26T05:05:27;13.95;;;5.47;;
75941;SDS011;64622;46.220;19.878;2023-02-26T05:07:53;12.82;;;4.85;;
75941;SDS011;64622;46.220;19.878;2023-02-26T05:10:22;14.63;;;5.75;;
75941;SDS011;64622;46.220;19.878;2023-02-26T05:12:49;11.52;;;5.03;;
75941;SDS011;64622;46.220;19.878;2023-02-26T05:15:15;12.40;;;5.78;;
75941;SDS011;64622;46.220;19.878;2023-02-26T05:17:42;12.60;;;5.55;;
75941;SDS011;64622;46.220;19.878;2023-02-26T05:20:10;14.18;;;5.25;;
75941;SDS011;64622;46.220;19.878;2023-02-26T05:22:37;12.85;;;5.47;;
75941;SDS011;64622;46.220;19.878;2023-02-26T05:25:06;13.57;;;5.62;;
75941;SDS011;64622;46.220;19.878;2023-02-26T05:27:33;14.05;;;5.70;;
75941;SDS011;64622;46.220;19.878;2023-02-26T05:30:00;14.70;;;6.60;;
75941;SDS011;64622;46.220;19.878;2023-02-26T05:32:27;13.15;;;6.15;;
75941;SDS011;64622;46.220;19.878;2023-02-26T05:34:55;12.63;;;5.18;;
75941;SDS011;64622;46.220;19.878;2023-02-26T05:37:21;12.73;;;4.60;;
75941;SDS011;64622;46.220;19.878;2023-02-26T05:39:48;14.23;;;6.22;;
75941;SDS011;64622;46.220;19.878;2023-02-26T05:42:15;15.65;;;5.80;;
75941;SDS011;64622;46.220;19.878;2023-02-26T05:44:41;12.35;;;5.43;;
75941;SDS011;64622;46.220;19.878;2023-02-26T05:47:08;12.00;;;4.95;;
75941;SDS011;64622;46.220;19.878;2023-02-26T05:49:34;14.77;;;6.95;;
75941;SDS011;64622;46.220;19.878;2023-02-26T05:52:01;14.55;;;6.20;;
75941;SDS011;64622;46.220;19.878;2023-02-26T05:54:28;12.88;;;5.70;;
75941;SDS011;64622;46.220;19.878;2023-02-26T05:56:55;12.90;;;6.10;;
75941;SDS011;64622;46.220;19.878;2023-02-26T05:59:22;12.18;;;5.43;;
75941;SDS011;64622;46.220;19.878;2023-02-26T06:01:49;12.20;;;5.62;;
75941;SDS011;64622;46.220;19.878;2023-02-26T06:04:16;25.25;;;10.43;;
75941;SDS011;64622;46.220;19.878;2023-02-26T06:06:42;15.68;;;7.43;;
75941;SDS011;64622;46.220;19.878;2023-02-26T06:09:09;17.48;;;8.65;;
75941;SDS011;64622;46.220;19.878;2023-02-26T06:11:36;15.77;;;7.53;;
75941;SDS011;64622;46.220;19.878;2023-02-26T06:14:04;16.77;;;7.87;;
75941;SDS011;64622;46.220;19.878;2023-02-26T06:16:31;14.82;;;6.47;;
75941;SDS011;64622;46.220;19.878;2023-02-26T06:18:58;14.07;;;6.95;;
75941;SDS011;64622;46.220;19.878;2023-02-26T06:21:24;15.32;;;6.20;;
75941;SDS011;64622;46.220;19.878;2023-02-26T06:23:51;13.82;;;6.22;;
75941;SDS011;64622;46.220;19.878;2023-02-26T06:26:18;15.98;;;7.50;;
75941;SDS011;64622;46.220;19.878;2023-02-26T06:28:44;15.82;;;7.32;;
75941;SDS011;64622;46.220;19.878;2023-02-26T06:31:11;13.80;;;6.75;;
75941;SDS011;64622;46.220;19.878;2023-02-26T06:33:38;14.87;;;8.50;;
75941;SDS011;64622;46.220;19.878;2023-02-26T06:36:04;12.82;;;6.12;;
75941;SDS011;64622;46.220;19.878;2023-02-26T06:38:31;12.35;;;6.22;;
75941;SDS011;64622;46.220;19.878;2023-02-26T06:40:59;14.93;;;7.28;;
75941;SDS011;64622;46.220;19.878;2023-02-26T06:43:25;14.82;;;7.18;;
75941;SDS011;64622;46.220;19.878;2023-02-26T06:45:52;15.10;;;6.35;;
75941;SDS011;64622;46.220;19.878;2023-02-26T06:48:23;16.27;;;7.07;;
75941;SDS011;64622;46.220;19.878;2023-02-26T06:50:50;15.98;;;8.27;;
75941;SDS011;64622;46.220;19.878;2023-02-26T06:53:18;20.20;;;9.00;;
75941;SDS011;64622;46.220;19.878;2023-02-26T06:55:45;15.35;;;8.25;;
75941;SDS011;64622;46.220;19.878;2023-02-26T06:58:14;17.12;;;9.57;;
75941;SDS011;64622;46.220;19.878;2023-02-26T07:00:40;19.10;;;9.70;;
75941;SDS011;64622;46.220;19.878;2023-02-26T07:03:11;13.68;;;6.60;;
75941;SDS011;64622;46.220;19.878;2023-02-26T07:05:40;18.67;;;8.25;;
75941;SDS011;64622;46.220;19.878;2023-02-26T07:08:08;19.08;;;10.02;;
75941;SDS011;64622;46.220;19.878;2023-02-26T07:10:34;19.55;;;10.13;;
75941;SDS011;64622;46.220;19.878;2023-02-26T07:13:02;23.83;;;13.32;;
75941;SDS011;64622;46.220;19.878;2023-02-26T07:15:30;15.30;;;8.65;;
75941;SDS011;64622;46.220;19.878;2023-02-26T07:17:57;12.15;;;6.22;;
75941;SDS011;64622;46.220;19.878;2023-02-26T07:20:25;13.77;;;7.90;;
75941;SDS011;64622;46.220;19.878;2023-02-26T07:22:53;16.13;;;8.30;;
75941;SDS011;64622;46.220;19.878;2023-02-26T07:25:19;15.60;;;8.82;;
75941;SDS011;64622;46.220;19.878;2023-02-26T07:27:46;13.73;;;7.60;;
75941;SDS011;64622;46.220;19.878;2023-02-26T07:30:13;10.18;;;5.25;;
75941;SDS011;64622;46.220;19.878;2023-02-26T07:32:43;14.50;;;8.25;;
75941;SDS011;64622;46.220;19.878;2023-02-26T07:35:10;11.17;;;5.17;;
75941;SDS011;64622;46.220;19.878;2023-02-26T07:37:36;14.43;;;6.65;;
75941;SDS011;64622;46.220;19.878;2023-02-26T07:40:03;12.23;;;6.57;;
75941;SDS011;64622;46.220;19.878;2023-02-26T07:42:31;12.25;;;5.87;;
75941;SDS011;64622;46.220;19.878;2023-02-26T07:44:58;11.73;;;6.25;;
75941;SDS011;64622;46.220;19.878;2023-02-26T07:47:24;12.88;;;6.55;;
75941;SDS011;64622;46.220;19.878;2023-02-26T07:49:53;14.35;;;6.87;;
75941;SDS011;64622;46.220;19.878;2023-02-26T07:52:20;12.75;;;5.90;;
75941;SDS011;64622;46.220;19.878;2023-02-26T07:54:47;13.20;;;6.82;;
75941;SDS011;64622;46.220;19.878;2023-02-26T07:57:14;17.37;;;9.30;;
75941;SDS011;64622;46.220;19.878;2023-02-26T07:59:40;12.07;;;6.45;;
75941;SDS011;64622;46.220;19.878;2023-02-26T08:02:07;25.52;;;15.73;;
75941;SDS011;64622;46.220;19.878;2023-02-26T08:04:35;19.48;;;11.73;;
75941;SDS011;64622;46.220;19.878;2023-02-26T08:07:02;13.32;;;6.45;;
75941;SDS011;64622;46.220;19.878;2023-02-26T08:09:29;15.65;;;7.47;;
75941;SDS011;64622;46.220;19.878;2023-02-26T08:11:56;15.05;;;8.07;;
75941;SDS011;64622;46.220;19.878;2023-02-26T08:14:22;24.08;;;12.68;;
75941;SDS011;64622;46.220;19.878;2023-02-26T08:16:49;24.20;;;13.00;;
75941;SDS011;64622;46.220;19.878;2023-02-26T08:19:16;28.52;;;14.75;;
75941;SDS011;64622;46.220;19.878;2023-02-26T08:21:43;34.58;;;17.25;;
75941;SDS011;64622;46.220;19.878;2023-02-26T08:24:10;22.10;;;12.27;;
75941;SDS011;64622;46.220;19.878;2023-02-26T08:26:38;23.58;;;13.27;;
75941;SDS011;64622;46.220;19.878;2023-02-26T08:29:05;55.33;;;25.88;;
75941;SDS011;64622;46.220;19.878;2023-02-26T08:31:32;23.40;;;12.37;;
75941;SDS011;64622;46.220;19.878;2023-02-26T08:34:00;23.17;;;13.00;;
75941;SDS011;64622;46.220;19.878;2023-02-26T08:36:27;48.93;;;22.03;;
75941;SDS011;64622;46.220;19.878;2023-02-26T08:38:54;23.58;;;14.40;;
75941;SDS011;64622;46.220;19.878;2023-02-26T08:41:20;18.33;;;11.07;;
75941;SDS011;64622;46.220;19.878;2023-02-26T08:43:48;17.92;;;9.57;;
75941;SDS011;64622;46.220;19.878;2023-02-26T08:46:14;22.42;;;10.73;;
75941;SDS011;64622;46.220;19.878;2023-02-26T08:48:41;16.10;;;8.33;;
75941;SDS011;64622;46.220;19.878;2023-02-26T08:51:08;20.35;;;10.40;;
75941;SDS011;64622;46.220;19.878;2023-02-26T08:53:34;14.90;;;7.50;;
75941;SDS011;64622;46.220;19.878;2023-02-26T08:56:01;16.20;;;7.65;;
75941;SDS011;64622;46.220;19.878;2023-02-26T08:58:28;13.80;;;7.78;;
75941;SDS011;64622;46.220;19.878;2023-02-26T09:00:54;15.70;;;8.50;;
75941;SDS011;64622;46.220;19.878;2023-02-26T09:03:22;12.27;;;6.37;;
75941;SDS011;64622;46.220;19.878;2023-02-26T09:05:49;14.00;;;7.72;;
75941;SDS011;64622;46.220;19.878;2023-02-26T09:08:16;14.35;;;7.72;;
75941;SDS011;64622;46.220;19.878;2023-02-26T09:10:46;15.25;;;7.32;;
75941;SDS011;64622;46.220;19.878;2023-02-26T09:13:12;13.93;;;6.85;;
75941;SDS011;64622;46.220;19.878;2023-02-26T09:15:40;17.45;;;8.05;;
75941;SDS011;64622;46.220;19.878;2023-02-26T09:18:07;15.45;;;7.93;;
75941;SDS011;64622;46.220;19.878;2023-02-26T09:20:41;18.98;;;9.73;;
75941;SDS011;64622;46.220;19.878;2023-02-26T09:23:08;18.77;;;10.07;;
75941;SDS011;64622;46.220;19.878;2023-02-26T09:25:35;15.77;;;8.60;;
75941;SDS011;64622;46.220;19.878;2023-02-26T09:28:02;18.85;;;8.55;;
75941;SDS011;64622;46.220;19.878;2023-02-26T09:30:30;23.98;;;9.43;;
75941;SDS011;64622;46.220;19.878;2023-02-26T09:32:57;17.20;;;7.82;;
75941;SDS011;64622;46.220;19.878;2023-02-26T09:35:24;11.68;;;6.47;;
75941;SDS011;64622;46.220;19.878;2023-02-26T09:37:51;13.40;;;6.10;;
75941;SDS011;64622;46.220;19.878;2023-02-26T09:40:27;14.35;;;6.43;;
75941;SDS011;64622;46.220;19.878;2023-02-26T09:43:27;14.82;;;6.82;;
75941;SDS011;64622;46.220;19.878;2023-02-26T09:51:32;12.00;;;5.30;;
75941;SDS011;64622;46.220;19.878;2023-02-26T09:54:04;14.43;;;6.62;;
75941;SDS011;64622;46.220;19.878;2023-02-26T09:56:45;13.13;;;6.85;;
75941;SDS011;64622;46.220;19.878;2023-02-26T09:59:12;14.38;;;7.57;;
75941;SDS011;64622;46.220;19.878;2023-02-26T10:01:55;20.58;;;9.73;;
75941;SDS011;64622;46.220;19.878;2023-02-26T10:09:59;15.10;;;7.60;;
75941;SDS011;64622;46.220;19.878;2023-02-26T10:12:38;14.32;;;7.85;;
75941;SDS011;64622;46.220;19.878;2023-02-26T10:18:00;15.13;;;7.60;;
75941;SDS011;64622;46.220;19.878;2023-02-26T10:26:45;18.17;;;8.60;;
75941;SDS011;64622;46.220;19.878;2023-02-26T10:29:35;19.23;;;9.27;;
75941;SDS011;64622;46.220;19.878;2023-02-26T10:32:14;31.00;;;15.18;;
75941;SDS011;64622;46.220;19.878;2023-02-26T10:35:06;35.92;;;16.75;;
75941;SDS011;64622;46.220;19.878;2023-02-26T10:40:46;20.05;;;10.00;;
75941;SDS011;64622;46.220;19.878;2023-02-26T10:43:21;21.58;;;10.60;;
75941;SDS011;64622;46.220;19.878;2023-02-26T10:51:23;19.30;;;10.15;;
75941;SDS011;64622;46.220;19.878;2023-02-26T10:53:56;16.02;;;8.77;;
75941;SDS011;64622;46.220;19.878;2023-02-26T10:56:27;26.00;;;13.62;;
75941;SDS011;64622;46.220;19.878;2023-02-26T10:58:57;21.48;;;11.23;;
75941;SDS011;64622;46.220;19.878;2023-02-26T11:01:25;16.48;;;8.80;;
75941;SDS011;64622;46.220;19.878;2023-02-26T11:03:55;20.55;;;11.25;;
75941;SDS011;64622;46.220;19.878;2023-02-26T11:06:30;22.00;;;10.52;;
75941;SDS011;64622;46.220;19.878;2023-02-26T11:12:00;17.07;;;8.70;;
75941;SDS011;64622;46.220;19.878;2023-02-26T11:14:39;20.98;;;10.57;;
75941;SDS011;64622;46.220;19.878;2023-02-26T11:19:38;19.17;;;10.32;;
75941;SDS011;64622;46.220;19.878;2023-02-26T11:22:11;19.65;;;10.73;;
75941;SDS011;64622;46.220;19.878;2023-02-26T11:24:41;19.57;;;10.13;;
75941;SDS011;64622;46.220;19.878;2023-02-26T11:27:14;19.87;;;10.82;;
75941;SDS011;64622;46.220;19.878;2023-02-26T11:29:46;17.42;;;8.30;;
75941;SDS011;64622;46.220;19.878;2023-02-26T11:32:21;17.17;;;8.98;;
75941;SDS011;64622;46.220;19.878;2023-02-26T11:34:50;19.15;;;10.48;;
75941;SDS011;64622;46.220;19.878;2023-02-26T11:37:26;15.63;;;7.97;;
75941;SDS011;64622;46.220;19.878;2023-02-26T11:39:59;16.33;;;8.95;;
75941;SDS011;64622;46.220;19.878;2023-02-26T11:42:37;16.08;;;8.68;;
75941;SDS011;64622;46.220;19.878;2023-02-26T11:45:07;18.75;;;9.32;;
75941;SDS011;64622;46.220;19.878;2023-02-26T11:47:41;16.27;;;8.35;;
75941;SDS011;64622;46.220;19.878;2023-02-26T11:50:11;20.03;;;9.67;;
75941;SDS011;64622;46.220;19.878;2023-02-26T11:52:43;21.25;;;10.52;;
75941;SDS011;64622;46.220;19.878;2023-02-26T11:55:20;18.75;;;10.25;;
75941;SDS011;64622;46.220;19.878;2023-02-26T11:57:51;18.48;;;9.85;;
75941;SDS011;64622;46.220;19.878;2023-02-26T12:02:59;14.15;;;8.50;;
75941;SDS011;64622;46.220;19.878;2023-02-26T12:05:30;17.35;;;8.57;;
75941;SDS011;64622;46.220;19.878;2023-02-26T12:07:58;16.20;;;8.25;;
75941;SDS011;64622;46.220;19.878;2023-02-26T12:11:00;16.77;;;9.95;;
75941;SDS011;64622;46.220;19.878;2023-02-26T12:14:01;16.17;;;8.35;;
75941;SDS011;64622;46.220;19.878;2023-02-26T13:10:19;17.33;;;10.68;;
75941;SDS011;64622;46.220;19.878;2023-02-26T13:21:12;14.23;;;8.90;;
75941;SDS011;64622;46.220;19.878;2023-02-26T13:26:19;14.27;;;7.07;;
75941;SDS011;64622;46.220;19.878;2023-02-26T13:31:26;13.20;;;6.43;;
75941;SDS011;64622;46.220;19.878;2023-02-26T13:33:57;19.10;;;8.65;;
75941;SDS011;64622;46.220;19.878;2023-02-26T13:36:28;15.63;;;7.85;;
75941;SDS011;64622;46.220;19.878;2023-02-26T13:38:58;17.10;;;8.15;;
75941;SDS011;64622;46.220;19.878;2023-02-26T13:47:51;15.90;;;7.57;;
75941;SDS011;64622;46.220;19.878;2023-02-26T13:55:54;13.45;;;7.25;;
75941;SDS011;64622;46.220;19.878;2023-02-26T13:58:40;15.00;;;8.13;;
75941;SDS011;64622;46.220;19.878;2023-02-26T14:01:17;41.80;;;22.25;;
75941;SDS011;64622;46.220;19.878;2023-02-26T14:04:48;18.05;;;9.40;;
75941;SDS011;64622;46.220;19.878;2023-02-26T14:06:45;18.25;;;9.00;;
75941;SDS011;64622;46.220;19.878;2023-02-26T14:14:34;40.35;;;23.42;;
75941;SDS011;64622;46.220;19.878;2023-02-26T14:30:04;16.62;;;8.25;;
75941;SDS011;64622;46.220;19.878;2023-02-26T14:35:22;16.12;;;8.50;;
75941;SDS011;64622;46.220;19.878;2023-02-26T14:37:57;17.42;;;8.30;;
75941;SDS011;64622;46.220;19.878;2023-02-26T14:40:38;17.60;;;8.38;;
75941;SDS011;64622;46.220;19.878;2023-02-26T14:43:54;18.27;;;9.65;;
75941;SDS011;64622;46.220;19.878;2023-02-26T14:46:03;21.83;;;9.30;;
75941;SDS011;64622;46.220;19.878;2023-02-26T14:48:32;23.17;;;12.43;;
75941;SDS011;64622;46.220;19.878;2023-02-26T15:12:48;29.25;;;12.88;;
75941;SDS011;64622;46.220;19.878;2023-02-26T15:15:35;27.62;;;12.10;;
75941;SDS011;64622;46.220;19.878;2023-02-26T15:18:10;19.80;;;7.32;;
75941;SDS011;64622;46.220;19.878;2023-02-26T15:23:53;15.52;;;7.22;;
75941;SDS011;64622;46.220;19.878;2023-02-26T15:26:31;18.83;;;9.10;;
75941;SDS011;64622;46.220;19.878;2023-02-26T15:29:02;14.45;;;6.45;;
75941;SDS011;64622;46.220;19.878;2023-02-26T15:31:33;17.75;;;8.20;;
75941;SDS011;64622;46.220;19.878;2023-02-26T15:34:05;18.02;;;8.68;;
75941;SDS011;64622;46.220;19.878;2023-02-26T15:36:32;16.62;;;7.68;;
75941;SDS011;64622;46.220;19.878;2023-02-26T15:38:59;18.95;;;8.70;;
75941;SDS011;64622;46.220;19.878;2023-02-26T15:41:29;18.40;;;7.90;;
75941;SDS011;64622;46.220;19.878;2023-02-26T15:43:59;15.43;;;8.85;;
75941;SDS011;64622;46.220;19.878;2023-02-26T15:46:34;30.80;;;17.33;;
75941;SDS011;64622;46.220;19.878;2023-02-26T15:49:09;27.02;;;13.30;;
75941;SDS011;64622;46.220;19.878;2023-02-26T15:51:41;22.15;;;10.00;;
75941;SDS011;64622;46.220;19.878;2023-02-26T15:54:14;30.95;;;16.98;;
75941;SDS011;64622;46.220;19.878;2023-02-26T15:56:44;25.20;;;12.50;;
75941;SDS011;64622;46.220;19.878;2023-02-26T15:59:18;26.37;;;13.43;;
75941;SDS011;64622;46.220;19.878;2023-02-26T16:01:49;25.42;;;13.32;;
75941;SDS011;64622;46.220;19.878;2023-02-26T16:04:17;20.25;;;10.85;;
75941;SDS011;64622;46.220;19.878;2023-02-26T16:06:46;22.58;;;10.05;;
75941;SDS011;64622;46.220;19.878;2023-02-26T16:09:17;20.33;;;10.10;;
75941;SDS011;64622;46.220;19.878;2023-02-26T16:11:46;22.27;;;10.70;;
75941;SDS011;64622;46.220;19.878;2023-02-26T16:14:16;24.98;;;11.50;;
75941;SDS011;64622;46.220;19.878;2023-02-26T16:16:53;23.20;;;11.25;;
75941;SDS011;64622;46.220;19.878;2023-02-26T16:20:10;15.75;;;7.65;;
75941;SDS011;64622;46.220;19.878;2023-02-26T16:24:48;24.48;;;9.57;;
75941;SDS011;64622;46.220;19.878;2023-02-26T16:27:24;26.48;;;15.32;;
75941;SDS011;64622;46.220;19.878;2023-02-26T16:29:54;20.75;;;10.25;;
75941;SDS011;64622;46.220;19.878;2023-02-26T16:32:24;22.05;;;10.88;;
75941;SDS011;64622;46.220;19.878;2023-02-26T16:34:55;22.73;;;10.68;;
75941;SDS011;64622;46.220;19.878;2023-02-26T16:37:25;24.02;;;11.65;;
75941;SDS011;64622;46.220;19.878;2023-02-26T16:45:42;22.48;;;11.88;;
75941;SDS011;64622;46.220;19.878;2023-02-26T16:51:11;24.33;;;10.80;;
75941;SDS011;64622;46.220;19.878;2023-02-26T16:53:47;30.05;;;13.90;;
75941;SDS011;64622;46.220;19.878;2023-02-26T16:56:18;21.17;;;9.98;;
75941;SDS011;64622;46.220;19.878;2023-02-26T16:58:52;50.92;;;29.35;;
75941;SDS011;64622;46.220;19.878;2023-02-26T17:01:28;23.08;;;11.70;;
75941;SDS011;64622;46.220;19.878;2023-02-26T17:04:01;34.75;;;18.27;;
75941;SDS011;64622;46.220;19.878;2023-02-26T17:06:29;25.20;;;12.52;;
75941;SDS011;64622;46.220;19.878;2023-02-26T17:09:01;23.00;;;11.90;;
75941;SDS011;64622;46.220;19.878;2023-02-26T17:11:32;28.60;;;15.98;;
75941;SDS011;64622;46.220;19.878;2023-02-26T17:14:14;25.50;;;11.20;;
75941;SDS011;64622;46.220;19.878;2023-02-26T17:16:45;37.08;;;17.85;;
75941;SDS011;64622;46.220;19.878;2023-02-26T17:19:13;33.80;;;15.55;;
75941;SDS011;64622;46.220;19.878;2023-02-26T17:21:42;39.85;;;17.90;;
75941;SDS011;64622;46.220;19.878;2023-02-26T17:24:17;26.92;;;12.82;;
75941;SDS011;64622;46.220;19.878;2023-02-26T17:26:48;26.92;;;12.13;;
75941;SDS011;64622;46.220;19.878;2023-02-26T17:29:18;22.92;;;10.75;;
75941;SDS011;64622;46.220;19.878;2023-02-26T17:31:48;21.83;;;11.00;;
75941;SDS011;64622;46.220;19.878;2023-02-26T17:34:17;19.83;;;9.77;;
75941;SDS011;64622;46.220;19.878;2023-02-26T17:36:46;28.17;;;14.80;;
75941;SDS011;64622;46.220;19.878;2023-02-26T17:39:13;20.27;;;9.15;;
75941;SDS011;64622;46.220;19.878;2023-02-26T17:41:41;22.62;;;12.40;;
75941;SDS011;64622;46.220;19.878;2023-02-26T17:44:09;19.67;;;8.27;;
75941;SDS011;64622;46.220;19.878;2023-02-26T17:46:36;18.75;;;8.73;;
75941;SDS011;64622;46.220;19.878;2023-02-26T17:49:04;23.73;;;11.30;;
75941;SDS011;64622;46.220;19.878;2023-02-26T17:51:31;22.75;;;10.52;;
75941;SDS011;64622;46.220;19.878;2023-02-26T17:53:57;18.50;;;8.77;;
75941;SDS011;64622;46.220;19.878;2023-02-26T17:56:26;17.80;;;8.25;;
75941;SDS011;64622;46.220;19.878;2023-02-26T17:58:56;17.37;;;7.85;;
75941;SDS011;64622;46.220;19.878;2023-02-26T18:01:23;18.37;;;8.50;;
75941;SDS011;64622;46.220;19.878;2023-02-26T18:03:53;18.33;;;8.88;;
75941;SDS011;64622;46.220;19.878;2023-02-26T18:06:20;17.70;;;8.95;;
75941;SDS011;64622;46.220;19.878;2023-02-26T18:08:49;37.78;;;18.08;;
75941;SDS011;64622;46.220;19.878;2023-02-26T18:11:17;21.48;;;9.63;;
75941;SDS011;64622;46.220;19.878;2023-02-26T18:13:47;24.70;;;11.25;;
75941;SDS011;64622;46.220;19.878;2023-02-26T18:16:16;14.18;;;6.80;;
75941;SDS011;64622;46.220;19.878;2023-02-26T18:18:46;17.50;;;8.43;;
75941;SDS011;64622;46.220;19.878;2023-02-26T18:21:14;29.30;;;11.77;;
75941;SDS011;64622;46.220;19.878;2023-02-26T18:23:40;26.90;;;11.18;;
75941;SDS011;64622;46.220;19.878;2023-02-26T18:26:08;22.02;;;9.90;;
75941;SDS011;64622;46.220;19.878;2023-02-26T18:28:36;18.85;;;8.98;;